Weather Underground® Station Historical Data


Station Historical Data For Bruceton, TN. (K3JAE's Weather Station - KTNBRUCE2)
 
Daily Summary for:  May 29, 2017 Units:  English    Metric   Both
« Previous Day
Next Day »
Daily Weekly Monthly Yearly Custom
  Current: High: Low: Average:
Temperature: 63.4 °F 64.4 °F 63.3 °F 63.8 °F
Dew Point: 58.1 °F 60.1 °F 57.9 °F 58.9 °F
Humidity: 83% 86% 82% 84%
Wind Speed: 0.0mph 0.0mph 0.0mph 0mph
Wind Gust: 0.0mph 0.1mph - -
WindCalm - - North
Pressure: 29.97 in 29.97 in 29.94 in -
Precipitation: 0.00 in      
Historical Graphs
 
 
Tabular Data for:  May 29, 2017
Time Temperature Dew Point Pressure Wind Wind Speed Wind Gust Humidity Rainfall Rate (Hourly) solar Conditions
00:03 64.4 °F 60.1 °F 29.94 in Calm     86% 0.00 in 0.0 W/m2 RA
00:08 64.4 °F 60.1 °F 29.94 in Calm     86% 0.00 in 0.0 W/m2 CLR
00:13 64.4 °F 60.1 °F 29.94 in Calm   0.1 mph 86% 0.00 in 0.0 W/m2 CLR
00:18 64.4 °F 60.1 °F 29.94 in Calm     86% 0.00 in 0.0 W/m2 CLR
00:23 64.4 °F 60.1 °F 29.94 in Calm     86% 0.00 in 0.0 W/m2 CLR
00:28 64.4 °F 59.8 °F 29.94 in Calm     85% 0.00 in 0.0 W/m2 CLR
00:33 64.4 °F 59.8 °F 29.94 in Calm     85% 0.00 in 0.0 W/m2 CLR
00:38 64.4 °F 59.8 °F 29.94 in Calm     85% 0.00 in 0.0 W/m2 CLR
00:43 64.4 °F 59.8 °F 29.94 in Calm     85% 0.00 in 0.0 W/m2 CLR
00:48 64.4 °F 59.8 °F 29.95 in Calm     85% 0.00 in 0.0 W/m2 CLR
00:53 64.3 °F 59.7 °F 29.95 in Calm     85% 0.00 in 0.0 W/m2 CLR
00:58 64.2 °F 59.6 °F 29.95 in Calm     85% 0.00 in 0.0 W/m2 CLR
01:03 64.2 °F 59.6 °F 29.95 in Calm     85% 0.00 in 0.0 W/m2 CLR
01:08 64.2 °F 59.6 °F 29.95 in Calm     85% 0.00 in 0.0 W/m2 CLR
01:13 64.2 °F 59.6 °F 29.95 in Calm     85% 0.00 in 0.0 W/m2 CLR
01:18 64.1 °F 59.2 °F 29.95 in Calm     84% 0.00 in 0.0 W/m2 CLR
01:23 64.1 °F 59.2 °F 29.95 in Calm     84% 0.00 in 0.0 W/m2 CLR
01:28 64.0 °F 59.1 °F 29.95 in Calm     84% 0.00 in 0.0 W/m2 CLR
01:33 63.9 °F 59.0 °F 29.95 in Calm     84% 0.00 in 0.0 W/m2 CLR
01:38 63.9 °F 59.0 °F 29.95 in Calm     84% 0.00 in 0.0 W/m2 CLR
01:43 63.9 °F 59.0 °F 29.95 in Calm     84% 0.00 in 0.0 W/m2 CLR
01:48 63.8 °F 58.9 °F 29.95 in Calm     84% 0.00 in 0.0 W/m2 CLR
01:53 63.8 °F 58.9 °F 29.95 in Calm     84% 0.00 in 0.0 W/m2 CLR
01:58 63.8 °F 58.9 °F 29.95 in Calm     84% 0.00 in 0.0 W/m2 CLR
01:59 63.4 °F 58.5 °F 29.95 in Calm     84% 0.00 in 0.0 W/m2 CLR
02:03 63.8 °F 58.9 °F 29.95 in Calm     84% 0.00 in 0.0 W/m2 CLR
02:08 63.8 °F 58.9 °F 29.95 in Calm     84% 0.00 in 0.0 W/m2 CLR
02:09 63.3 °F 58.4 °F 29.96 in Calm     84% 0.00 in 0.0 W/m2 CLR
02:13 63.8 °F 58.9 °F 29.95 in Calm     84% 0.00 in 0.0 W/m2 CLR
02:18 63.8 °F 58.9 °F 29.96 in Calm     84% 0.00 in 0.0 W/m2 CLR
02:19 63.3 °F 58.0 °F 29.96 in Calm     83% 0.00 in 0.0 W/m2 CLR
02:23 63.7 °F 58.8 °F 29.96 in Calm     84% 0.00 in 0.0 W/m2 CLR
02:28 63.7 °F 58.8 °F 29.95 in Calm     84% 0.00 in 0.0 W/m2 CLR
02:33 63.7 °F 58.8 °F 29.95 in Calm     84% 0.00 in 0.0 W/m2 CLR
02:38 63.6 °F 58.7 °F 29.96 in Calm     84% 0.00 in 0.0 W/m2 CLR
02:43 63.5 °F 58.6 °F 29.96 in Calm     84% 0.00 in 0.0 W/m2 CLR
02:48 63.4 °F 58.5 °F 29.96 in Calm     84% 0.00 in 0.0 W/m2 CLR
02:53 63.4 °F 58.5 °F 29.96 in Calm     84% 0.00 in 0.0 W/m2 CLR
02:56 63.4 °F 58.5 °F 29.96 in Calm     84% 0.00 in 0.0 W/m2 CLR
02:58 63.4 °F 58.5 °F 29.96 in Calm     84% 0.00 in 0.0 W/m2 CLR
03:03 63.4 °F 58.5 °F 29.96 in Calm     84% 0.00 in 0.0 W/m2 CLR
03:24 63.3 °F 58.0 °F 29.96 in Calm     83% 0.00 in 0.0 W/m2 CLR
03:29 63.4 °F 58.1 °F 29.97 in Calm     83% 0.00 in 0.0 W/m2 CLR
03:34 63.4 °F 58.1 °F 29.96 in Calm     83% 0.00 in 0.0 W/m2 CLR
03:39 63.5 °F 58.2 °F 29.96 in Calm     83% 0.00 in 0.0 W/m2 CLR
03:44 63.6 °F 58.3 °F 29.96 in Calm     83% 0.00 in 0.0 W/m2 CLR
03:49 63.6 °F 58.3 °F 29.96 in Calm     83% 0.00 in 0.0 W/m2 CLR
03:54 63.6 °F 58.3 °F 29.96 in Calm     83% 0.00 in 0.0 W/m2 CLR
03:59 63.5 °F 58.2 °F 29.96 in Calm     83% 0.00 in 0.0 W/m2 CLR
04:04 63.5 °F 58.2 °F 29.96 in Calm     83% 0.00 in 0.0 W/m2 CLR
04:09 63.5 °F 58.2 °F 29.96 in Calm     83% 0.00 in 0.0 W/m2 CLR
04:14 63.5 °F 57.9 °F 29.96 in Calm     82% 0.00 in 0.0 W/m2 CLR
04:19 63.5 °F 57.9 °F 29.96 in Calm     82% 0.00 in 0.0 W/m2 CLR
04:24 63.4 °F 58.1 °F 29.96 in Calm     83% 0.00 in 0.0 W/m2 CLR
04:29 63.4 °F 58.1 °F 29.97 in Calm     83% 0.00 in 0.0 W/m2 CLR
Bruceton, TN. NWS Weather Forecast
Compliments of:  Weather Underground - 4 mb

Interesting Weather Facts
CLOUD HEIGHT
The cloud height on this site is an estimate of cumulus clouds using a formula based on temperature and dew point. Actual measurements of cloud height are made with a Micropulse Lidar (MPL). This device fires a laser into the sky and measures the backscattered signal. Costs for such a device are beyond the scope of weather hobbyists.